Station: Shepparton  

  Atmospheric Gas Attenuation - ITU Rec 676-11   ----------------- dB/100km -----------------
Date Time Temp RH % AH g/m3 Dew Point Wind Direction Speed kph Gust kph Barometer mB Rainfall Since 9am 24GHz 47GHz 76GHz 122GHz 134GHz 241GHz
08/05 12:30 16.6 66 9.32 10.2 19 33 1023 0 21.0 26.6 41.7 109.4 105.0 362.0
08/05 12:20 16.5 67 9.41 10.4 15 17 1023.1 0 21.2 26.8 42.1 110.5 106.4 366.6
08/05 12:10 16.7 68 9.66 10.8 15 17 1023.1 0 21.7 27.1 43.0 112.9 109.4 377.2
08/05 12:00 16.6 71 10.03 11.3 13 20 1023.1 0 22.5 27.8 44.6 117.1 114.5 395.0
08/05 11:50 15.8 75 10.1 11.4 15 17 1023.3 0 22.7 28.1 45.3 119.0 116.6 402.5
08/05 11:40 15.3 75 9.79 10.9 13 17 1023.3 0 22.0 27.8 44.3 116.4 113.2 390.2
08/05 11:30 15.1 76 9.8 10.9 15 26 1023.3 0 22.1 27.9 44.5 116.8 113.6 391.7
08/05 11:20 15 76 9.75 10.8 15 17 1023.3 0 22.0 27.8 44.3 116.4 113.1 389.8
08/05 11:10 15.4 77 10.12 11.4 17 20 1023.3 0 22.7 28.3 45.6 119.9 117.5 405.5
08/05 11:00 15 78 10 11.2 15 20 1023.3 0 22.5 28.2 45.4 119.2 116.5 401.8
08/05 10:50 14.1 81 9.83 10.9 15 20 1023.3 0 22.2 28.2 45.2 118.6 115.5 398.2
08/05 10:40 13.9 82 9.83 10.9 19 24 1023.3 0 22.2 28.3 45.3 118.9 115.8 399.3
08/05 10:30 13.8 82 9.77 10.8 19 30 1023.2 0 22.1 28.2 45.1 118.4 115.1 396.8
08/05 10:20 13.7 82 9.71 10.7 15 17 1023.2 0 22.0 28.1 44.9 117.9 114.4 394.4
08/05 10:10 13.5 83 9.71 10.7 20 24 1023.2 0 22.0 28.2 45.0 118.2 114.7 395.4
08/05 10:00 13.5 82 9.59 10.5 22 39 1023.2 0 21.7 28.0 44.5 116.8 113.1 389.6
08/05 09:50 13.4 83 9.65 10.6 20 26 1023.2 0 21.8 28.1 44.8 117.6 114.0 393.0
08/05 09:40 13.1 83 9.47 10.3 30 35 1023.2 0 21.5 27.9 44.2 116.1 112.0 385.8
08/05 09:30 13.1 86 9.81 10.8 24 37 1023.2 0 22.2 28.5 45.7 119.9 116.7 402.4
08/05 09:20 12.4 87 9.51 10.3 28 32 1023.2 0 21.6 28.2 44.8 117.6 113.6 391.3
08/05 09:10 12.1 89 9.55 10.3 19 20 1023.2 0 21.7 28.4 45.1 118.5 114.6 394.7
08/05 09:00 11.9 89 9.43 10.1 22 35 1023 0 21.5 28.2 44.7 117.4 113.2 389.8
08/05 08:50 11.6 91 9.46 10.2 24 28 1023 0 21.5 28.4 45.0 118.2 114.0 392.8
08/05 08:40 11.2 92 9.33 9.9 22 26 1023 0 21.3 28.3 44.7 117.3 112.8 388.4
08/05 08:30 10.8 93 9.19 9.7 22 32 1022.9 0 21.0 28.2 44.3 116.3 111.4 383.4
08/05 08:20 10.5 93 9.02 9.4 22 26 1022.8 0 20.6 28.0 43.7 114.8 109.4 376.4
08/05 08:10 10.2 94 8.95 9.3 22 26 1022.8 0 20.5 27.9 43.6 114.4 108.8 374.4
08/05 08:00 9.9 94 8.78 9 20 28 1022.7 0 20.2 27.7 43.0 112.9 106.9 367.4
08/05 07:50 9.8 95 8.82 9 17 20 1022.6 0 20.2 27.8 43.3 113.5 107.6 369.9
08/05 07:40 9.4 95 8.59 8.6 17 19 1022.5 0 19.8 27.6 42.5 111.4 104.8 360.3
08/05 07:30 9.3 95 8.54 8.5 19 26 1022.4 0 19.7 27.5 42.3 111.0 104.3 358.3
08/05 07:20 9.3 94 8.45 8.4 17 20 1022.3 0 19.5 27.3 41.9 109.9 103.0 353.8
08/05 07:10 9.3 94 8.45 8.4 20 24 1022.2 0 19.5 27.3 41.9 109.9 103.0 353.8
08/05 07:00 9.2 94 8.4 8.3 19 28 1022.2 0 19.4 27.3 41.8 109.5 102.4 351.8
08/05 06:50 9.2 94 8.4 8.3 19 22 1022.2 0 19.4 27.3 41.8 109.5 102.4 351.8
08/05 06:40 9.2 94 8.4 8.3 20 28 1022.2 0 19.4 27.3 41.8 109.5 102.4 351.8
08/05 06:30 9.2 93 8.31 8.1 17 24 1022.3 0 19.2 27.1 41.4 108.5 101.2 347.4
08/05 06:20 9.2 93 8.31 8.1 17 22 1022.3 0 19.2 27.1 41.4 108.5 101.2 347.4
08/05 06:10 9.2 93 8.31 8.1 19 24 1022.2 0 19.2 27.1 41.4 108.5 101.1 347.4
08/05 06:00 9.1 92 8.17 7.9 19 24 1022.3 0 18.9 26.9 40.8 107.0 99.3 341.0
08/05 05:50 9.1 92 8.17 7.9 17 20 1022.3 0 18.9 26.9 40.8 107.0 99.3 341.0
08/05 05:40 9 93 8.2 7.9 20 24 1022.2 0 19.0 27.0 41.0 107.5 99.9 342.9
08/05 05:30 8.9 93 8.15 7.8 20 28 1022.2 0 18.9 27.0 40.8 107.1 99.3 340.9
08/05 05:20 9.3 90 8.09 7.7 19 22 1022.2 0 18.7 26.7 40.4 105.8 97.9 336.2
08/05 05:10 9.5 88 8.01 7.6 22 28 1022.1 0 18.5 26.5 39.9 104.7 96.6 331.4
08/05 05:00 9.6 87 7.97 7.5 20 28 1022.1 0 18.4 26.4 39.7 104.1 95.9 329.1
08/05 04:50 9.7 87 8.02 7.6 17 20 1022.2 0 18.5 26.5 39.9 104.5 96.5 331.1
08/05 04:40 9.8 86 7.98 7.6 19 22 1022.1 0 18.4 26.4 39.7 103.9 95.8 328.7
08/05 04:30 9.9 85 7.94 7.5 17 22 1022 0 18.4 26.3 39.4 103.3 95.1 326.4
08/05 04:20 10 85 7.99 7.6 17 20 1021.9 0 18.5 26.3 39.6 103.7 95.7 328.3
08/05 04:10 10 84 7.9 7.4 20 24 1021.9 0 18.3 26.2 39.2 102.8 94.4 324.0
08/05 04:00 10.1 83 7.85 7.3 20 28 1021.7 0 18.1 26.1 39.0 102.0 93.6 321.2
08/05 03:50 10.2 82 7.81 7.3 22 26 1021.7 0 18.1 26.0 38.7 101.5 93.0 318.8
08/05 03:40 10.2 82 7.81 7.3 20 22 1021.7 0 18.1 26.0 38.7 101.5 93.0 318.8
08/05 03:30 10.4 80 7.71 7.1 19 26 1021.7 0 17.8 25.7 38.2 100.1 91.4 313.3
08/05 03:20 10.5 80 7.76 7.2 17 20 1021.8 0 17.9 25.8 38.4 100.6 91.9 315.3
08/05 03:10 10.5 79 7.66 7 20 24 1021.8 0 17.7 25.6 38.0 99.5 90.6 310.6
08/05 03:00 10.4 79 7.62 6.9 19 26 1021.8 0 17.6 25.6 37.9 99.2 90.2 309.1
08/05 02:50 10.5 78 7.57 6.8 17 19 1021.8 0 17.5 25.5 37.6 98.5 89.4 306.4
08/05 02:40 10.6 77 7.52 6.7 22 30 1021.9 0 17.4 25.4 37.4 97.8 88.6 303.7
08/05 02:30 10.6 77 7.52 6.7 20 28 1021.9 0 17.4 25.4 37.4 97.8 88.6 303.7
08/05 02:20 10.6 77 7.52 6.7 20 26 1022.1 0 17.4 25.4 37.4 97.8 88.6 303.7
08/05 02:10 10.6 76 7.42 6.6 22 26 1022.1 0 17.2 25.2 37.0 96.8 87.3 299.0
08/05 02:00 10.6 76 7.42 6.6 19 28 1022.1 0 17.2 25.2 37.0 96.8 87.3 299.0
08/05 01:50 10.6 76 7.42 6.6 19 22 1022.1 0 17.2 25.2 37.0 96.8 87.3 299.0
08/05 01:40 10.6 76 7.42 6.6 19 26 1022.2 0 17.2 25.2 37.0 96.8 87.3 299.1
08/05 01:30 10.6 75 7.32 6.4 19 28 1022.2 0 17.0 25.1 36.6 95.7 86.0 294.4
08/05 01:20 10.7 75 7.37 6.5 19 24 1022.4 0 17.1 25.1 36.7 96.1 86.5 296.4
08/05 01:10 10.7 75 7.37 6.5 19 26 1022.4 0 17.1 25.1 36.7 96.1 86.5 296.4
08/05 01:00 10.7 74 7.27 6.3 17 24 1022.5 0 16.9 25.0 36.4 95.1 85.2 291.8
08/05 00:50 10.7 75 7.37 6.5 19 22 1022.6 0 17.1 25.1 36.8 96.2 86.5 296.5
08/05 00:40 10.6 75 7.32 6.4 17 19 1022.6 0 17.0 25.1 36.6 95.7 86.0 294.5
08/05 00:30 10.7 75 7.37 6.5 15 20 1022.7 0 17.1 25.1 36.8 96.2 86.6 296.5
08/05 00:20 10.7 75 7.37 6.5 11 13 1022.9 0 17.1 25.2 36.8 96.2 86.6 296.5
08/05 00:10 10.8 75 7.41 6.6 15 17 1023 0 17.2 25.2 36.9 96.5 87.0 298.0
08/05 00:00 10.8 75 7.41 6.6 13 19 1023.2 0 17.2 25.2 36.9 96.5 87.0 298.1
07/05 23:50 10.8 74 7.32 6.4 17 19 1023.1 0 17.0 25.0 36.5 95.6 85.8 293.9
07/05 23:40 10.9 73 7.26 6.3 17 19 1023.1 0 16.8 24.9 36.2 94.8 84.9 290.7
07/05 23:30 10.8 74 7.32 6.4 17 22 1023.2 0 17.0 25.1 36.5 95.6 85.8 293.9
07/05 23:20 10.7 74 7.27 6.3 19 22 1023.3 0 16.9 25.0 36.4 95.2 85.3 292.0
07/05 23:10 10.7 74 7.27 6.3 17 20 1023.5 0 16.9 25.0 36.4 95.2 85.3 292.0
07/05 23:00 10.7 74 7.27 6.3 15 20 1023.6 0 16.9 25.0 36.4 95.2 85.3 292.1
07/05 22:50 10.7 74 7.27 6.3 13 15 1023.6 0 16.9 25.0 36.4 95.2 85.3 292.1
07/05 22:40 10.7 74 7.27 6.3 13 15 1023.6 0 16.9 25.0 36.4 95.2 85.3 292.1
07/05 22:30 10.8 74 7.32 6.4 17 22 1023.6 0 17.0 25.1 36.6 95.6 85.8 294.0
07/05 22:20 10.9 72 7.16 6.1 19 20 1023.7 0 16.6 24.8 35.9 93.8 83.6 286.3
07/05 22:10 10.9 73 7.26 6.3 17 20 1023.7 0 16.8 24.9 36.3 94.8 85.0 290.9
07/05 22:00 11 72 7.21 6.2 19 24 1023.7 0 16.7 24.8 36.0 94.2 84.2 288.2
07/05 21:50 11.1 71 7.15 6 17 20 1023.8 0 16.6 24.7 35.8 93.5 83.3 285.1
07/05 21:40 11.1 70 7.05 5.8 17 20 1024 0 16.4 24.6 35.4 92.4 82.0 280.6
07/05 21:30 11.2 69 7 5.7 19 28 1024.1 0 16.3 24.5 35.1 91.8 81.3 278.0
07/05 21:20 11.1 69 6.95 5.6 15 22 1024.1 0 16.2 24.4 35.0 91.4 80.7 276.1
07/05 21:10 11.2 69 7 5.7 20 24 1024 0 16.3 24.5 35.1 91.8 81.3 278.0
07/05 21:00 11.1 69 6.95 5.6 19 24 1024 0 16.2 24.4 35.0 91.4 80.7 276.0
07/05 20:50 11.3 67 6.84 5.4 22 28 1024 0 15.9 24.2 34.5 90.0 79.1 270.4
07/05 20:40 11.1 70 7.05 5.8 13 17 1024 0 16.4 24.6 35.4 92.4 82.0 280.6
07/05 20:30 11.1 71 7.15 6 20 28 1024.1 0 16.6 24.7 35.8 93.5 83.3 285.2
07/05 20:20 10.8 73 7.22 6.2 20 22 1024.1 0 16.8 24.9 36.2 94.6 84.6 289.5
07/05 20:10 10.7 75 7.37 6.5 15 17 1024 0 17.1 25.2 36.8 96.3 86.7 296.8
07/05 20:00 10.5 76 7.37 6.5 15 20 1023.9 0 17.1 25.2 36.9 96.5 86.9 297.5

Last Refresh: 08-May-2026 12:07:21

Bureau of Meteorology